Time;durP1;ratioP1;P1;durP2;ratioP2;P2;SDS_P1;SDS_P2;PMS_P1;PMS_P2;Temp;Humidity;BMP_temperature;BMP_pressure;BME280_temperature;BME280_humidity;BME280_pressure;Samples;Min_cycle;Max_cycle;Signal;HPM_P1;HPM_P2
2023/03/14 00:00:10;;;;;;;3.08;1.67;;;;;;;-3.01;97.08;98438.38;10525628;28;20044;-79
2023/03/14 00:05:13;;;;;;;3.47;1.27;;;;;;;-2.96;97.03;98423.16;10522157;28;20036;-78
2023/03/14 00:10:36;;;;;;;1.42;1.20;;;;;;;-2.90;97.56;98419.50;10526439;28;20829;-78
2023/03/14 00:16:02;;;;;;;2.72;1.40;;;;;;;-2.87;97.18;98419.00;10520631;28;20418;-77
2023/03/14 00:21:23;;;;;;;2.95;1.70;;;;;;;-2.84;97.47;98391.66;10523848;28;20502;-78
2023/03/14 00:26:44;;;;;;;3.20;1.38;;;;;;;-2.78;97.25;98387.16;10523091;28;20082;-77
2023/03/14 00:32:05;;;;;;;1.40;1.30;;;;;;;-2.77;97.12;98354.72;10472863;28;20127;-78
2023/03/14 00:37:27;;;;;;;2.83;1.73;;;;;;;-2.74;97.33;98359.59;10479948;28;20525;-78
2023/03/14 00:42:48;;;;;;;2.83;1.50;;;;;;;-2.67;97.02;98312.94;10507914;28;20386;-77
2023/03/14 00:48:11;;;;;;;1.70;1.30;;;;;;;-2.65;96.86;98308.94;10516886;28;20463;-79
2023/03/14 00:53:36;;;;;;;1.90;1.20;;;;;;;-2.63;96.98;98269.22;10527005;28;20044;-76
2023/03/14 00:58:38;;;;;;;3.78;1.67;;;;;;;-2.59;96.97;98240.03;10506249;28;20044;-79
2023/03/14 01:03:40;;;;;;;1.52;1.27;;;;;;;-2.60;97.09;98233.03;10490696;28;20036;-78
2023/03/14 01:08:45;;;;;;;2.35;1.63;;;;;;;-2.60;97.26;98224.97;10496321;28;20532;-79
2023/03/14 01:13:47;;;;;;;2.13;1.55;;;;;;;-2.59;97.71;98199.75;10488597;28;20494;-79
2023/03/14 01:18:49;;;;;;;1.90;1.50;;;;;;;-2.58;97.45;98183.38;10504920;28;20516;-78
2023/03/14 01:24:11;;;;;;;1.48;1.38;;;;;;;-2.51;97.94;98159.00;10504274;28;20131;-78
2023/03/14 01:29:32;;;;;;;2.38;1.63;;;;;;;-2.49;97.75;98170.28;10515750;28;20129;-79
2023/03/14 01:34:53;;;;;;;1.60;1.50;;;;;;;-2.49;98.12;98140.75;10510420;28;20041;-77
2023/03/14 01:39:56;;;;;;;1.35;1.15;;;;;;;-2.46;98.28;98130.31;10490920;28;20040;-78
2023/03/14 01:45:01;;;;;;;3.00;1.38;;;;;;;-2.44;98.73;98130.84;10479636;28;20044;-78
2023/03/14 01:50:10;;;;;;;0.93;0.93;;;;;;;-2.41;98.42;98105.38;10490816;28;20059;-80
2023/03/14 01:55:20;;;;;;;1.08;0.98;;;;;;;-2.38;98.55;98099.50;10473654;28;20413;-79
2023/03/14 02:00:23;;;;;;;1.38;1.23;;;;;;;-2.33;98.70;98088.75;10473142;28;20383;-78
2023/03/14 02:05:29;;;;;;;1.48;1.38;;;;;;;-2.26;98.99;98086.63;10489235;28;20047;-79
2023/03/14 02:10:41;;;;;;;1.42;0.82;;;;;;;-2.19;98.54;98065.75;10503158;28;20055;-78
2023/03/14 02:15:45;;;;;;;1.48;1.10;;;;;;;-2.13;98.68;98018.22;10496142;28;20048;-78
2023/03/14 02:21:18;;;;;;;1.45;0.93;;;;;;;-2.05;98.77;98028.47;10482171;28;20052;-78
2023/03/14 02:26:27;;;;;;;1.05;1.05;;;;;;;-1.96;98.87;98009.94;10505763;28;20041;-78
2023/03/14 02:31:29;;;;;;;2.38;1.50;;;;;;;-1.86;98.39;98015.34;10498952;28;20044;-79
2023/03/14 02:36:31;;;;;;;1.20;1.10;;;;;;;-1.77;98.23;98011.06;10520077;28;20048;-78
2023/03/14 02:41:34;;;;;;;2.03;1.25;;;;;;;-1.68;98.48;97997.91;10507289;28;20047;-79
2023/03/14 02:46:40;;;;;;;1.25;1.13;;;;;;;-1.59;98.30;97989.03;10505156;28;20041;-79
2023/03/14 02:51:43;;;;;;;0.90;0.90;;;;;;;-1.50;97.93;97978.56;10503599;28;20492;-77
2023/03/14 02:56:45;;;;;;;2.35;1.20;;;;;;;-1.41;98.40;97990.41;10495289;28;20053;-77
2023/03/14 03:01:48;;;;;;;1.20;1.10;;;;;;;-1.32;98.26;97980.72;10512906;28;20041;-80
2023/03/14 03:06:51;;;;;;;1.48;1.00;;;;;;;-1.22;98.92;97985.28;10509132;28;20452;-78
2023/03/14 03:11:53;;;;;;;1.17;1.00;;;;;;;-1.13;98.70;97967.53;10526197;28;20063;-78
2023/03/14 03:16:58;;;;;;;1.17;1.05;;;;;;;-1.06;98.82;97934.97;10455163;28;20516;-78
2023/03/14 03:22:01;;;;;;;0.75;0.75;;;;;;;-1.01;99.35;97935.78;10487564;28;20051;-76
2023/03/14 03:27:03;;;;;;;2.90;1.20;;;;;;;-0.92;99.39;97952.16;10489383;28;20044;-79
2023/03/14 03:32:05;;;;;;;3.13;1.27;;;;;;;-0.88;99.16;97901.28;10506909;28;20048;-78
2023/03/14 03:37:07;;;;;;;2.55;1.52;;;;;;;-0.81;99.94;97904.50;10529163;28;20036;-80
2023/03/14 03:42:13;;;;;;;1.50;1.40;;;;;;;-0.74;99.62;97905.81;10485510;28;20512;-79
2023/03/14 03:47:16;;;;;;;0.98;0.90;;;;;;;-0.66;99.87;97913.34;10459557;28;20398;-80
2023/03/14 03:52:18;;;;;;;1.10;1.00;;;;;;;-0.58;100.00;97903.06;10501166;28;20040;-78
2023/03/14 03:57:21;;;;;;;0.50;0.50;;;;;;;-0.48;100.00;97878.78;10491987;28;20036;-77
2023/03/14 04:02:23;;;;;;;0.70;0.70;;;;;;;-0.39;100.00;97883.31;10527685;28;20043;-78
2023/03/14 04:07:26;;;;;;;1.95;0.82;;;;;;;-0.30;100.00;97859.28;10523978;28;20044;-78
2023/03/14 04:12:29;;;;;;;1.10;1.00;;;;;;;-0.17;100.00;97864.06;10489756;28;20074;-77
2023/03/14 04:17:41;;;;;;;1.50;1.08;;;;;;;-0.05;100.00;97866.38;10527632;28;20055;-77
2023/03/14 04:22:43;;;;;;;2.53;1.13;;;;;;;0.00;100.00;97858.28;10492046;28;20060;-78
2023/03/14 04:27:46;;;;;;;1.42;0.75;;;;;;;0.16;100.00;97842.78;10503712;28;20050;-78
2023/03/14 04:32:55;;;;;;;0.88;0.80;;;;;;;0.27;100.00;97830.84;10508637;28;20045;-76
2023/03/14 04:38:00;;;;;;;4.28;1.17;;;;;;;0.39;100.00;97830.47;10514147;28;20041;-77
2023/03/14 04:43:04;;;;;;;1.73;1.20;;;;;;;0.49;100.00;97825.75;10495408;28;20494;-78
2023/03/14 04:48:06;;;;;;;0.80;0.80;;;;;;;0.55;100.00;97830.03;10497093;28;20056;-78
2023/03/14 04:53:09;;;;;;;0.43;0.43;;;;;;;0.57;100.00;97830.56;10507851;28;20044;-78
2023/03/14 04:58:11;;;;;;;2.25;1.20;;;;;;;0.68;100.00;97825.03;10499458;28;20037;-78
2023/03/14 05:03:15;;;;;;;0.93;0.85;;;;;;;0.75;100.00;97817.44;10476281;28;20390;-78
2023/03/14 05:08:48;;;;;;;0.52;0.52;;;;;;;0.81;100.00;97814.38;10481680;28;20093;-75
2023/03/14 05:14:01;;;;;;;1.52;0.90;;;;;;;0.78;100.00;97812.25;10494359;28;20047;-76
2023/03/14 05:19:22;;;;;;;0.75;0.55;;;;;;;0.85;100.00;97812.69;10514918;28;20040;-77
2023/03/14 05:24:42;;;;;;;1.83;1.30;;;;;;;0.96;100.00;97805.31;10523009;28;20052;-78
2023/03/14 05:30:06;;;;;;;1.13;0.70;;;;;;;1.01;100.00;97815.22;10494385;28;20055;-77
2023/03/14 05:35:18;;;;;;;2.00;1.00;;;;;;;1.11;100.00;97802.44;10484270;28;20053;-78
2023/03/14 05:40:38;;;;;;;2.30;1.55;;;;;;;1.21;100.00;97793.38;10486560;28;20040;-77
2023/03/14 05:45:40;;;;;;;0.68;0.68;;;;;;;1.27;100.00;97797.63;10483266;28;20037;-76
2023/03/14 05:51:01;;;;;;;1.83;1.00;;;;;;;1.47;100.00;97786.53;10482832;28;20051;-77
2023/03/14 05:56:29;;;;;;;;;;;;;;;1.58;100.00;97811.53;10460287;28;20045;-77
2023/03/14 06:01:50;;;;;;;0.60;0.50;;;;;;;1.72;100.00;97796.16;10509256;28;20106;-77
2023/03/14 06:06:56;;;;;;;1.63;0.82;;;;;;;1.87;100.00;97797.84;10514450;28;20081;-77
2023/03/14 06:11:59;;;;;;;0.73;0.60;;;;;;;2.01;100.00;97793.31;10466732;28;20049;-77
2023/03/14 06:17:01;;;;;;;0.90;0.55;;;;;;;2.11;100.00;97787.75;10489670;28;20047;-77
2023/03/14 06:22:10;;;;;;;1.40;0.50;;;;;;;2.27;100.00;97771.25;10491109;28;20493;-77
2023/03/14 06:27:13;;;;;;;0.50;0.50;;;;;;;2.36;100.00;97788.41;10467513;28;20044;-77
2023/03/14 06:32:18;;;;;;;0.63;0.60;;;;;;;2.37;100.00;97790.00;10485544;28;20095;-76
2023/03/14 06:37:21;;;;;;;2.45;0.75;;;;;;;2.42;100.00;97784.50;10504020;28;20032;-77
2023/03/14 06:42:24;;;;;;;0.57;0.50;;;;;;;2.47;100.00;97795.25;10468120;28;20048;-77
2023/03/14 06:47:28;;;;;;;2.22;1.00;;;;;;;2.50;100.00;97810.09;10455652;28;20055;-77
2023/03/14 06:52:31;;;;;;;1.88;0.95;;;;;;;2.57;100.00;97816.69;10467259;28;20044;-79
2023/03/14 06:57:34;;;;;;;1.02;0.93;;;;;;;2.62;100.00;97826.66;10467503;28;20045;-77
2023/03/14 07:02:36;;;;;;;1.42;0.85;;;;;;;2.67;100.00;97827.34;10493030;28;20051;-77
2023/03/14 07:07:38;;;;;;;1.20;0.52;;;;;;;2.79;100.00;97812.53;10508221;28;20052;-76
2023/03/14 07:12:40;;;;;;;1.63;1.00;;;;;;;2.90;100.00;97813.94;10516262;28;20076;-77
2023/03/14 07:17:43;;;;;;;1.92;0.85;;;;;;;2.98;100.00;97824.09;10466454;28;20052;-77
2023/03/14 07:22:48;;;;;;;1.92;1.30;;;;;;;3.07;100.00;97833.09;10476081;28;20048;-77
2023/03/14 07:27:51;;;;;;;0.70;0.70;;;;;;;3.13;100.00;97825.69;10515492;28;20045;-78
2023/03/14 07:32:53;;;;;;;0.32;0.32;;;;;;;3.19;100.00;97827.19;10475576;28;20044;-77
2023/03/14 07:37:59;;;;;;;1.45;0.88;;;;;;;3.23;100.00;97849.88;10496648;28;20063;-77
2023/03/14 07:43:09;;;;;;;0.88;0.75;;;;;;;3.30;100.00;97850.28;10530980;28;20047;-78
2023/03/14 07:48:21;;;;;;;2.08;0.95;;;;;;;3.42;100.00;97841.63;10514809;28;20052;-77
2023/03/14 07:53:24;;;;;;;3.30;1.75;;;;;;;3.49;100.00;97850.97;10517956;28;20045;-78
2023/03/14 07:58:27;;;;;;;2.03;1.00;;;;;;;3.57;100.00;97857.56;10531880;28;20036;-78
2023/03/14 08:03:29;;;;;;;2.03;1.70;;;;;;;3.60;100.00;97862.38;10499703;28;20041;-79
2023/03/14 08:08:31;;;;;;;1.23;0.75;;;;;;;3.64;100.00;97871.50;10498792;28;20044;-77
2023/03/14 08:13:33;;;;;;;0.95;0.95;;;;;;;3.67;100.00;97876.34;10527770;28;20041;-77
2023/03/14 08:18:36;;;;;;;1.58;0.98;;;;;;;3.73;100.00;97866.19;10510455;28;20052;-78
2023/03/14 08:23:38;;;;;;;0.98;0.73;;;;;;;3.81;100.00;97879.81;10544907;28;20045;-76
2023/03/14 08:28:40;;;;;;;4.63;1.75;;;;;;;3.95;100.00;97855.38;10510190;28;20048;-78
2023/03/14 08:33:42;;;;;;;1.95;1.40;;;;;;;4.10;100.00;97865.88;10525532;28;20043;-79
2023/03/14 08:38:45;;;;;;;0.63;0.63;;;;;;;4.15;100.00;97875.81;10494007;28;20044;-78
2023/03/14 08:43:47;;;;;;;3.80;1.85;;;;;;;4.23;100.00;97866.97;10529158;28;20044;-78
2023/03/14 08:48:49;;;;;;;2.90;1.15;;;;;;;4.29;100.00;97879.28;10523974;28;20045;-77
2023/03/14 08:53:51;;;;;;;2.28;1.30;;;;;;;4.37;100.00;97900.28;10530769;28;20053;-78
2023/03/14 08:58:53;;;;;;;4.85;2.03;;;;;;;4.43;100.00;97896.31;10486092;28;20391;-77
2023/03/14 09:03:56;;;;;;;2.08;0.98;;;;;;;4.47;100.00;97908.16;10515543;28;20464;-79
2023/03/14 09:08:58;;;;;;;3.22;1.48;;;;;;;4.56;100.00;97913.69;10517372;28;20060;-79
2023/03/14 09:14:00;;;;;;;2.53;1.98;;;;;;;4.65;100.00;97911.81;10499997;28;20047;-77
2023/03/14 09:19:02;;;;;;;2.28;1.27;;;;;;;4.75;100.00;97919.72;10507268;28;20045;-77
2023/03/14 09:24:05;;;;;;;2.63;1.70;;;;;;;4.80;100.00;97935.09;10486694;28;20052;-76
2023/03/14 09:29:07;;;;;;;2.25;1.38;;;;;;;4.87;100.00;97954.50;10528421;28;20051;-78
2023/03/14 09:34:09;;;;;;;3.45;2.10;;;;;;;4.93;100.00;97947.81;10517042;28;20048;-79
2023/03/14 09:39:12;;;;;;;1.65;1.15;;;;;;;4.99;100.00;97951.19;10517975;28;20037;-77
2023/03/14 09:44:35;;;;;;;1.00;0.95;;;;;;;5.10;100.00;97928.09;10478783;28;20095;-77
2023/03/14 09:49:39;;;;;;;2.70;1.58;;;;;;;5.19;100.00;97952.59;10479676;28;20036;-78
2023/03/14 09:54:58;;;;;;;1.20;0.57;;;;;;;5.24;99.75;97938.88;10494315;28;20502;-77
2023/03/14 10:00:13;;;;;;;1.30;1.20;;;;;;;5.32;99.35;97960.66;10494938;28;20048;-77
2023/03/14 10:05:17;;;;;;;2.72;1.33;;;;;;;5.37;98.70;97982.28;10495006;28;20044;-77
2023/03/14 10:10:22;;;;;;;2.22;1.58;;;;;;;5.42;98.64;97968.56;10529358;28;20048;-80
2023/03/14 10:15:30;;;;;;;8.45;2.92;;;;;;;5.47;98.07;97972.25;10509239;28;20433;-78
2023/03/14 10:20:35;;;;;;;6.88;1.95;;;;;;;5.47;97.04;97992.09;10506115;28;20036;-78
2023/03/14 10:25:46;;;;;;;2.45;1.50;;;;;;;5.57;97.57;98000.00;10501638;28;20044;-76
2023/03/14 10:30:49;;;;;;;3.80;2.13;;;;;;;5.61;96.88;97990.09;10495712;28;20045;-77
2023/03/14 10:36:15;;;;;;;3.03;1.63;;;;;;;5.67;95.83;97990.75;10510280;28;20040;-77
2023/03/14 10:41:25;;;;;;;1.33;1.00;;;;;;;5.73;95.47;97995.75;10515222;28;20060;-77
2023/03/14 10:46:31;;;;;;;1.33;1.00;;;;;;;5.75;95.14;98009.03;10494582;28;20053;-76
2023/03/14 10:51:52;;;;;;;2.38;1.05;;;;;;;5.86;94.40;98004.09;10498008;28;20045;-79
2023/03/14 10:56:59;;;;;;;2.42;1.15;;;;;;;5.86;94.55;98001.38;10500267;28;20045;-76
2023/03/14 11:02:43;;;;;;;1.45;1.08;;;;;;;5.94;93.90;98008.81;10518426;28;20413;-79
2023/03/14 11:07:45;;;;;;;3.90;1.60;;;;;;;5.96;92.87;98015.53;10551401;28;20060;-79
2023/03/14 11:13:01;;;;;;;1.90;1.35;;;;;;;5.97;92.63;98013.63;10505666;28;20422;-77
2023/03/14 11:18:29;;;;;;;4.97;2.05;;;;;;;5.98;92.48;98010.59;10519162;28;20073;-78
2023/03/14 11:23:34;;;;;;;1.20;1.10;;;;;;;6.05;92.33;98023.72;10515548;28;20055;-78
2023/03/14 11:28:38;;;;;;;1.90;1.30;;;;;;;6.12;92.05;98024.09;10518726;28;20666;-77
2023/03/14 11:34:12;;;;;;;3.15;1.63;;;;;;;6.13;91.57;98024.88;10532536;28;20041;-77
2023/03/14 11:39:17;;;;;;;4.15;1.85;;;;;;;6.11;91.88;98027.13;10496577;28;20143;-76
2023/03/14 11:44:41;;;;;;;5.82;1.20;;;;;;;6.12;91.94;98029.53;10535235;28;20230;-78
2023/03/14 11:50:12;;;;;;;5.43;2.75;;;;;;;6.12;91.70;98051.31;10529545;28;20044;-80
2023/03/14 11:55:35;;;;;;;2.50;1.33;;;;;;;6.09;91.34;98062.03;10484030;28;20053;-79
2023/03/14 12:00:38;;;;;;;1.17;1.08;;;;;;;6.05;90.91;98061.84;10504206;28;20087;-78
2023/03/14 12:06:10;;;;;;;5.68;2.05;;;;;;;6.03;91.84;98074.97;10489492;28;20040;-77
2023/03/14 12:11:16;;;;;;;3.20;1.58;;;;;;;6.06;90.97;98077.06;10488127;28;20060;-77
2023/03/14 12:16:25;;;;;;;1.88;1.23;;;;;;;6.13;91.66;98080.13;10487297;28;20045;-76
2023/03/14 12:21:47;;;;;;;2.75;1.52;;;;;;;6.21;91.31;98082.06;10488972;28;20052;-78
2023/03/14 12:26:53;;;;;;;1.02;0.68;;;;;;;6.28;90.18;98078.91;10440525;28;20044;-77
2023/03/14 12:32:23;;;;;;;5.35;2.60;;;;;;;6.40;89.74;98091.91;10470414;28;20049;-77
2023/03/14 12:37:34;;;;;;;4.55;2.30;;;;;;;6.51;89.35;98101.41;10488177;28;20053;-77
2023/03/14 12:43:03;;;;;;;3.70;1.77;;;;;;;6.52;88.84;98097.56;10492306;28;20460;-77
2023/03/14 12:48:14;;;;;;;2.35;1.83;;;;;;;6.54;89.19;98106.22;10492617;28;20056;-77
2023/03/14 12:54:04;;;;;;;4.55;2.45;;;;;;;6.51;88.85;98120.47;10462057;28;20418;-77
2023/03/14 12:59:45;;;;;;;2.38;1.13;;;;;;;6.42;88.79;98114.19;10474551;28;20049;-77
2023/03/14 13:05:04;;;;;;;3.70;2.03;;;;;;;6.41;89.08;98120.75;10437445;28;20510;-78
2023/03/14 13:10:09;;;;;;;4.95;2.60;;;;;;;6.39;89.87;98125.72;10512911;28;20094;-77
2023/03/14 13:15:33;;;;;;;5.80;1.95;;;;;;;6.35;89.28;98117.38;10517929;28;20041;-77
2023/03/14 13:20:38;;;;;;;4.50;1.95;;;;;;;6.34;89.26;98132.13;10519066;28;20034;-78
2023/03/14 13:25:40;;;;;;;3.10;2.05;;;;;;;6.35;90.00;98123.63;10513896;28;20052;-77
2023/03/14 13:30:47;;;;;;;3.72;1.85;;;;;;;6.34;89.27;98134.84;10512653;28;20043;-78
2023/03/14 13:36:03;;;;;;;4.13;2.33;;;;;;;6.35;88.94;98153.59;10531254;28;20121;-79
2023/03/14 13:41:07;;;;;;;3.95;2.03;;;;;;;6.35;89.43;98156.31;10534284;28;20047;-77
2023/03/14 13:46:15;;;;;;;5.35;2.22;;;;;;;6.35;89.73;98164.47;10512436;28;20144;-78
2023/03/14 13:51:18;;;;;;;5.18;2.55;;;;;;;6.33;89.17;98164.00;10517790;28;20481;-77
2023/03/14 13:56:22;;;;;;;4.45;2.08;;;;;;;6.31;89.16;98179.84;10495266;28;20036;-76
2023/03/14 14:01:33;;;;;;;4.50;2.38;;;;;;;6.26;88.88;98188.16;10492325;28;20047;-78
2023/03/14 14:06:38;;;;;;;6.68;2.83;;;;;;;6.27;89.14;98200.66;10494960;28;20040;-77
2023/03/14 14:11:47;;;;;;;8.60;3.40;;;;;;;6.19;89.64;98193.22;10497975;28;20048;-77
2023/03/14 14:16:50;;;;;;;8.95;3.45;;;;;;;6.16;89.93;98182.97;10487083;28;20041;-78
2023/03/14 14:21:53;;;;;;;6.22;2.67;;;;;;;6.17;89.75;98195.47;10505255;28;20045;-79
2023/03/14 14:27:01;;;;;;;5.78;2.55;;;;;;;6.15;90.58;98211.31;10501887;28;20506;-78
2023/03/14 14:32:06;;;;;;;4.80;2.25;;;;;;;6.18;89.88;98207.16;10493958;28;20040;-75
2023/03/14 14:37:20;;;;;;;4.35;2.65;;;;;;;6.15;89.84;98210.50;10504958;28;20056;-77
2023/03/14 14:42:26;;;;;;;3.40;1.58;;;;;;;6.05;90.13;98206.13;10522341;28;20052;-77
2023/03/14 14:47:29;;;;;;;6.10;2.95;;;;;;;5.99;90.56;98204.66;10517239;28;20514;-78
2023/03/14 14:52:38;;;;;;;7.80;3.10;;;;;;;6.00;90.96;98225.31;10476852;28;20041;-77
2023/03/14 14:57:48;;;;;;;3.83;1.83;;;;;;;5.94;90.54;98224.66;10494600;28;20052;-78
2023/03/14 15:02:55;;;;;;;4.25;1.60;;;;;;;5.92;91.10;98226.06;10496696;28;20045;-79
2023/03/14 15:08:01;;;;;;;4.32;3.03;;;;;;;5.88;90.69;98230.47;10474416;28;20055;-80
2023/03/14 15:13:03;;;;;;;3.58;2.05;;;;;;;5.85;90.53;98233.81;10521998;28;20045;-78
2023/03/14 15:18:27;;;;;;;3.80;2.40;;;;;;;5.88;91.43;98234.00;10518039;28;20044;-77
2023/03/14 15:23:33;;;;;;;5.05;2.08;;;;;;;5.87;90.64;98237.84;10495333;28;20039;-77
2023/03/14 15:28:36;;;;;;;3.53;2.25;;;;;;;5.88;91.03;98235.91;10509029;28;20103;-78
2023/03/14 15:33:38;;;;;;;5.80;2.50;;;;;;;5.87;91.47;98256.06;10521388;28;20028;-78
2023/03/14 15:38:40;;;;;;;3.85;2.30;;;;;;;5.87;90.92;98256.06;10516427;28;20494;-76
2023/03/14 15:43:46;;;;;;;5.20;2.75;;;;;;;5.85;91.74;98269.19;10521151;28;20052;-77
2023/03/14 15:48:50;;;;;;;6.25;2.60;;;;;;;5.78;91.46;98279.72;10509159;28;20044;-79
2023/03/14 15:53:56;;;;;;;6.78;3.25;;;;;;;5.77;91.65;98289.78;10525139;28;20048;-77
2023/03/14 15:59:03;;;;;;;2.67;1.60;;;;;;;5.74;91.74;98291.22;10530781;28;20611;-76
2023/03/14 16:04:05;;;;;;;4.75;2.33;;;;;;;5.72;92.44;98304.28;10530552;28;20045;-77
2023/03/14 16:09:08;;;;;;;6.20;2.13;;;;;;;5.68;92.02;98314.19;10529061;28;20045;-76
2023/03/14 16:14:10;;;;;;;6.82;3.53;;;;;;;5.63;91.95;98332.56;10530870;28;20048;-75
2023/03/14 16:19:12;;;;;;;8.60;4.03;;;;;;;5.61;92.62;98346.47;10529298;28;20040;-77
2023/03/14 16:24:14;;;;;;;5.07;2.35;;;;;;;5.62;92.84;98353.50;10525157;28;20040;-76
2023/03/14 16:29:16;;;;;;;8.15;3.63;;;;;;;5.59;92.72;98359.56;10506341;28;20525;-78
2023/03/14 16:34:19;;;;;;;8.20;3.53;;;;;;;5.60;93.01;98365.81;10510169;28;20046;-77
2023/03/14 16:39:21;;;;;;;12.13;3.45;;;;;;;5.56;92.79;98370.25;10527302;28;20490;-79
2023/03/14 16:44:24;;;;;;;8.88;3.53;;;;;;;5.57;92.94;98378.09;10488619;28;20056;-77
2023/03/14 16:49:26;;;;;;;7.95;2.88;;;;;;;5.55;93.06;98385.75;10517049;28;20055;-76
2023/03/14 16:54:30;;;;;;;7.82;3.55;;;;;;;5.53;92.85;98392.59;10546526;28;20048;-76
2023/03/14 16:59:32;;;;;;;5.25;3.67;;;;;;;5.51;92.53;98384.75;10528877;28;20037;-76
2023/03/14 17:04:34;;;;;;;8.10;3.53;;;;;;;5.54;92.57;98396.94;10511765;28;20051;-76
2023/03/14 17:09:37;;;;;;;6.47;3.55;;;;;;;5.52;92.85;98408.13;10524761;28;20056;-76
2023/03/14 17:14:39;;;;;;;8.68;4.18;;;;;;;5.48;93.31;98412.56;10526551;28;20051;-78
2023/03/14 17:19:41;;;;;;;6.90;4.22;;;;;;;5.44;93.69;98420.50;10498855;28;20055;-75
2023/03/14 17:24:43;;;;;;;9.68;3.25;;;;;;;5.42;93.26;98435.53;10503087;28;20037;-76
2023/03/14 17:29:46;;;;;;;9.70;4.65;;;;;;;5.39;93.45;98427.97;10519415;28;20532;-77
2023/03/14 17:34:48;;;;;;;4.57;2.83;;;;;;;5.36;93.58;98447.59;10528890;28;20239;-78
2023/03/14 17:39:50;;;;;;;6.28;4.65;;;;;;;5.29;94.34;98452.63;10528235;28;20048;-77
2023/03/14 17:44:53;;;;;;;10.13;4.35;;;;;;;5.27;94.56;98465.72;10542963;28;20036;-77
2023/03/14 17:49:55;;;;;;;9.80;3.35;;;;;;;5.24;94.73;98474.47;10526510;28;20049;-77
2023/03/14 17:54:57;;;;;;;5.85;3.47;;;;;;;5.22;94.38;98463.91;10527503;28;20119;-76
2023/03/14 18:00:00;;;;;;;8.80;3.80;;;;;;;5.21;94.40;98477.81;10528505;28;20044;-78
2023/03/14 18:05:03;;;;;;;8.25;4.05;;;;;;;5.17;94.72;98466.69;10527906;28;20049;-77
2023/03/14 18:10:08;;;;;;;8.43;3.92;;;;;;;5.15;94.40;98469.72;10527482;28;20048;-76
2023/03/14 18:15:12;;;;;;;7.90;4.38;;;;;;;5.07;95.08;98459.53;10520210;28;20055;-78
2023/03/14 18:20:14;;;;;;;6.50;4.25;;;;;;;5.00;94.92;98467.25;10527520;28;20047;-77
2023/03/14 18:25:16;;;;;;;14.18;5.45;;;;;;;4.94;95.31;98482.03;10518929;28;20496;-78
2023/03/14 18:30:19;;;;;;;12.52;5.65;;;;;;;4.90;95.04;98472.06;10525768;28;20044;-75
2023/03/14 18:35:21;;;;;;;9.80;4.90;;;;;;;4.85;94.92;98486.53;10521742;28;20049;-77
2023/03/14 18:40:24;;;;;;;10.30;4.85;;;;;;;4.80;95.00;98479.28;10542223;28;20040;-77
2023/03/14 18:45:26;;;;;;;8.73;4.68;;;;;;;4.76;95.35;98493.75;10526955;28;20043;-80
2023/03/14 18:50:28;;;;;;;7.70;4.82;;;;;;;4.72;95.20;98485.38;10496163;28;20041;-78
2023/03/14 18:55:31;;;;;;;7.70;3.80;;;;;;;4.71;94.96;98482.97;10506403;28;20037;-77
2023/03/14 19:00:36;;;;;;;12.75;4.40;;;;;;;4.65;95.64;98473.25;10505942;28;20036;-78
2023/03/14 19:05:42;;;;;;;12.57;5.88;;;;;;;4.59;95.16;98483.41;10511611;28;20043;-78
2023/03/14 19:10:44;;;;;;;10.77;4.38;;;;;;;4.56;95.61;98488.63;10469324;28;20076;-77
2023/03/14 19:15:47;;;;;;;9.38;4.50;;;;;;;4.56;95.63;98480.47;10499565;28;20039;-77
2023/03/14 19:21:02;;;;;;;6.15;3.40;;;;;;;4.52;95.93;98491.94;10532154;28;20048;-75
2023/03/14 19:26:08;;;;;;;11.27;5.22;;;;;;;4.51;96.63;98497.63;10529700;28;20036;-78
2023/03/14 19:31:10;;;;;;;13.65;5.13;;;;;;;4.52;96.45;98497.38;10553605;28;20556;-78
2023/03/14 19:36:22;;;;;;;8.40;5.53;;;;;;;4.51;96.62;98506.63;10492736;28;20041;-78
2023/03/14 19:41:25;;;;;;;9.55;4.70;;;;;;;4.49;97.22;98510.72;10532320;28;20043;-78
2023/03/14 19:46:29;;;;;;;10.23;5.13;;;;;;;4.45;97.53;98509.69;10534378;28;20052;-78
2023/03/14 19:51:34;;;;;;;13.88;6.93;;;;;;;4.40;98.70;98502.44;10529330;28;20048;-77
2023/03/14 19:56:37;;;;;;;18.70;7.60;;;;;;;4.34;98.91;98502.78;10511656;28;20047;-78
2023/03/14 20:01:40;;;;;;;10.73;4.97;;;;;;;4.30;99.47;98499.84;10508025;28;20044;-77
2023/03/14 20:06:42;;;;;;;10.15;4.90;;;;;;;4.26;99.86;98498.81;10524110;28;20036;-77
2023/03/14 20:11:45;;;;;;;9.00;5.20;;;;;;;4.23;100.00;98502.94;10507532;28;20059;-77
2023/03/14 20:16:48;;;;;;;10.02;5.32;;;;;;;4.19;100.00;98492.94;10526764;28;20045;-78
2023/03/14 20:21:50;;;;;;;15.60;8.43;;;;;;;4.19;100.00;98485.63;10512816;28;20048;-78
2023/03/14 20:26:52;;;;;;;17.65;8.57;;;;;;;4.18;100.00;98488.63;10526680;28;20049;-77
2023/03/14 20:31:55;;;;;;;21.90;9.50;;;;;;;4.14;100.00;98499.22;10516962;28;20036;-78
2023/03/14 20:36:57;;;;;;;17.77;7.93;;;;;;;4.12;100.00;98497.91;10519566;28;20040;-78
2023/03/14 20:41:59;;;;;;;16.25;8.68;;;;;;;4.13;100.00;98500.31;10529252;28;20041;-79
2023/03/14 20:47:02;;;;;;;17.35;8.27;;;;;;;4.09;100.00;98509.34;10496070;28;20055;-77
2023/03/14 20:52:04;;;;;;;14.55;8.63;;;;;;;4.06;100.00;98502.59;10530235;28;20041;-78
2023/03/14 20:57:07;;;;;;;15.55;7.22;;;;;;;4.06;100.00;98509.94;10528384;28;20040;-77
2023/03/14 21:02:14;;;;;;;12.02;6.40;;;;;;;4.05;100.00;98489.34;10518851;28;20410;-77
2023/03/14 21:07:16;;;;;;;14.27;7.70;;;;;;;4.07;100.00;98492.56;10488265;28;20403;-78
2023/03/14 21:12:18;;;;;;;13.90;7.60;;;;;;;4.06;100.00;98488.22;10503691;28;20051;-78
2023/03/14 21:17:20;;;;;;;11.05;6.68;;;;;;;4.03;100.00;98489.63;10536307;28;20127;-79
2023/03/14 21:22:25;;;;;;;15.25;8.25;;;;;;;4.01;100.00;98494.53;10526675;28;20044;-79
2023/03/14 21:27:28;;;;;;;13.93;7.75;;;;;;;4.02;100.00;98479.88;10504324;28;20044;-78
2023/03/14 21:32:34;;;;;;;10.95;6.88;;;;;;;3.99;100.00;98477.72;10515187;28;20043;-78
2023/03/14 21:37:36;;;;;;;10.02;6.65;;;;;;;4.03;100.00;98492.34;10508927;28;20413;-80
2023/03/14 21:42:38;;;;;;;9.95;6.13;;;;;;;4.01;100.00;98486.41;10525130;28;20049;-78
2023/03/14 21:47:44;;;;;;;11.63;6.38;;;;;;;4.02;100.00;98469.00;10500733;28;20044;-78
2023/03/14 21:52:46;;;;;;;10.48;6.55;;;;;;;4.19;100.00;98465.81;10514990;28;20051;-78
2023/03/14 21:58:13;;;;;;;6.13;4.30;;;;;;;4.07;100.00;98454.56;10517330;28;20033;-80
2023/03/14 22:03:40;;;;;;;7.90;4.17;;;;;;;4.00;100.00;98451.41;10514599;28;20468;-77
2023/03/14 22:08:42;;;;;;;6.95;4.63;;;;;;;3.93;100.00;98449.84;10516692;28;20036;-77
2023/03/14 22:13:45;;;;;;;5.35;3.80;;;;;;;3.89;100.00;98451.53;10524597;28;20041;-77
2023/03/14 22:18:47;;;;;;;6.60;4.13;;;;;;;3.86;100.00;98454.84;10524672;28;20044;-77
2023/03/14 22:23:50;;;;;;;5.00;3.40;;;;;;;3.86;100.00;98446.69;10502018;28;20048;-78
2023/03/14 22:28:52;;;;;;;6.30;3.58;;;;;;;3.83;100.00;98439.13;10523497;28;20044;-78
2023/03/14 22:33:58;;;;;;;6.25;3.60;;;;;;;3.77;100.00;98443.00;10495163;28;20047;-78
2023/03/14 22:39:01;;;;;;;5.28;3.60;;;;;;;3.75;100.00;98449.81;10523155;28;20036;-77
2023/03/14 22:44:03;;;;;;;4.75;3.47;;;;;;;3.74;100.00;98468.00;10513643;28;20047;-78
2023/03/14 22:49:09;;;;;;;4.82;3.40;;;;;;;3.72;100.00;98458.53;10523622;28;20040;-77
2023/03/14 22:54:11;;;;;;;3.53;3.10;;;;;;;3.67;100.00;98462.13;10510277;28;20052;-77
2023/03/14 22:59:14;;;;;;;4.45;3.63;;;;;;;3.64;100.00;98446.41;10526500;28;20051;-77
2023/03/14 23:04:20;;;;;;;4.55;3.67;;;;;;;3.65;100.00;98447.25;10533813;28;20043;-77
2023/03/14 23:09:26;;;;;;;5.53;3.20;;;;;;;3.62;100.00;98445.88;10526233;28;20925;-77
2023/03/14 23:14:28;;;;;;;5.43;3.10;;;;;;;3.61;100.00;98455.13;10494880;28;20037;-78
2023/03/14 23:19:30;;;;;;;4.95;3.22;;;;;;;3.56;100.00;98437.00;10524817;28;20044;-78
2023/03/14 23:24:32;;;;;;;5.25;3.60;;;;;;;3.55;100.00;98443.53;10522940;28;20036;-77
2023/03/14 23:29:34;;;;;;;5.05;3.85;;;;;;;3.52;100.00;98432.47;10519848;28;20041;-78
2023/03/14 23:34:42;;;;;;;3.58;3.17;;;;;;;3.53;100.00;98442.22;10538536;28;20044;-78
2023/03/14 23:39:48;;;;;;;4.63;3.60;;;;;;;3.54;100.00;98449.25;10516965;28;20045;-78
2023/03/14 23:44:54;;;;;;;4.18;3.28;;;;;;;3.53;100.00;98444.94;10511904;28;20051;-77
2023/03/14 23:49:56;;;;;;;3.33;3.00;;;;;;;3.53;100.00;98455.78;10527526;28;20052;-78